Time;durP1;ratioP1;P1;durP2;ratioP2;P2;SDS_P1;SDS_P2;PMS_P1;PMS_P2;Temp;Humidity;BMP_temperature;BMP_pressure;BME280_temperature;BME280_humidity;BME280_pressure;Samples;Min_cycle;Max_cycle;Signal;HPM_P1;HPM_P2
2023/02/24 00:01:01;;;;;;;61.00;19.88;;;;;;;11.31;68.40;100651.84;5017108;27;99285;-72
2023/02/24 00:03:28;;;;;;;64.25;19.42;;;;;;;11.50;67.63;100656.31;5024082;28;98694;-70
2023/02/24 00:05:55;;;;;;;62.47;19.85;;;;;;;11.43;67.91;100654.84;5019545;27;100900;-70
2023/02/24 00:08:21;;;;;;;57.28;18.52;;;;;;;11.40;67.52;100652.34;5025664;28;97108;-70
2023/02/24 00:10:48;;;;;;;52.20;18.92;;;;;;;10.95;68.75;100651.50;5024846;27;96832;-69
2023/02/24 00:13:21;;;;;;;59.28;18.25;;;;;;;11.18;67.97;100646.16;5028840;28;99547;-70
2023/02/24 00:15:57;;;;;;;54.30;18.33;;;;;;;11.08;67.91;100644.81;5027927;28;99013;-72
2023/02/24 00:18:24;;;;;;;;;;;;;;;11.14;67.27;100649.88;5027041;28;97577;-70
2023/02/24 00:20:55;;;;;;;55.42;16.48;;;;;;;11.28;66.67;100642.25;5025137;28;98368;-70
2023/02/24 00:23:22;;;;;;;42.60;15.00;;;;;;;11.15;67.45;100641.88;5027459;28;98197;-70
2023/02/24 00:25:48;;;;;;;52.65;16.50;;;;;;;10.77;67.86;100640.69;5028541;27;98957;-69
2023/02/24 00:28:15;;;;;;;48.88;15.75;;;;;;;10.84;67.57;100640.47;5028781;27;97054;-70
2023/02/24 00:30:42;;;;;;;53.00;15.95;;;;;;;10.98;66.90;100630.22;5032340;28;97046;-71
2023/02/24 00:33:11;;;;;;;50.35;15.43;;;;;;;10.98;66.88;100632.88;5026889;28;98987;-71
2023/02/24 00:35:37;;;;;;;51.78;16.65;;;;;;;11.21;66.73;100630.19;5028987;28;100860;-70
2023/02/24 00:38:05;;;;;;;50.45;14.95;;;;;;;11.28;65.53;100629.03;5030549;28;97602;-71
2023/02/24 00:40:36;;;;;;;44.75;13.77;;;;;;;11.59;63.94;100631.28;5031852;28;96928;-71
2023/02/24 00:43:02;;;;;;;38.42;12.77;;;;;;;11.12;64.34;100630.56;5029742;27;100508;-70
2023/02/24 00:45:29;;;;;;;41.80;13.43;;;;;;;11.24;64.42;100623.91;5029105;28;98888;-71
2023/02/24 00:47:56;;;;;;;34.38;11.25;;;;;;;11.19;63.06;100632.03;5028835;28;97460;-70
2023/02/24 00:50:23;;;;;;;26.80;8.50;;;;;;;10.87;63.16;100627.13;5033022;27;97278;-70
2023/02/24 00:52:50;;;;;;;24.95;7.72;;;;;;;10.84;62.28;100628.09;5031115;28;97955;-71
2023/02/24 00:55:18;;;;;;;25.48;6.97;;;;;;;10.69;61.22;100626.94;5028181;28;98904;-69
2023/02/24 00:57:44;;;;;;;25.95;8.73;;;;;;;10.47;62.00;100626.00;5019353;28;96918;-70
2023/02/24 01:00:15;;;;;;;25.67;6.78;;;;;;;10.32;61.56;100631.84;5024545;27;96982;-70
2023/02/24 01:02:43;;;;;;;25.92;6.88;;;;;;;10.93;60.68;100627.75;5026850;28;98453;-71
2023/02/24 01:05:10;;;;;;;20.10;5.95;;;;;;;10.98;59.18;100628.44;5024441;28;98957;-71
2023/02/24 01:07:37;;;;;;;20.83;5.88;;;;;;;10.81;58.89;100622.09;5021597;28;99050;-70
2023/02/24 01:10:07;;;;;;;22.33;7.00;;;;;;;10.51;59.71;100617.03;5026064;27;97339;-71
2023/02/24 01:12:37;;;;;;;20.73;5.63;;;;;;;10.47;59.65;100620.72;5028386;28;100003;-70
2023/02/24 01:15:07;;;;;;;13.07;5.00;;;;;;;10.17;59.94;100624.47;5022102;27;98802;-69
2023/02/24 01:17:35;;;;;;;21.05;5.75;;;;;;;10.39;59.32;100612.22;5020437;27;97222;-70
2023/02/24 01:20:14;;;;;;;24.55;5.45;;;;;;;10.37;59.92;100619.34;5026700;27;96915;-71
2023/02/24 01:22:41;;;;;;;25.05;5.22;;;;;;;10.20;59.54;100614.66;5016176;28;99246;-71
2023/02/24 01:25:07;;;;;;;28.35;5.50;;;;;;;10.32;60.15;100613.34;5028311;27;99377;-71
2023/02/24 01:27:36;;;;;;;19.80;4.60;;;;;;;10.65;59.00;100612.09;5030039;28;97186;-70
2023/02/24 01:30:03;;;;;;;23.90;5.35;;;;;;;10.42;59.26;100612.09;5033011;28;96795;-73
2023/02/24 01:32:31;;;;;;;19.02;3.42;;;;;;;10.45;58.15;100611.97;5024889;27;99240;-71
2023/02/24 01:34:58;;;;;;;22.85;4.45;;;;;;;10.43;57.84;100612.97;5028781;27;98925;-71
2023/02/24 01:37:25;;;;;;;24.23;4.32;;;;;;;10.03;57.87;100613.50;5029288;27;96862;-71
2023/02/24 01:39:52;;;;;;;26.88;4.53;;;;;;;9.75;56.98;100613.59;5030715;28;96622;-71
2023/02/24 01:42:20;;;;;;;23.63;5.28;;;;;;;10.02;56.36;100606.50;5029287;28;98991;-71
2023/02/24 01:45:13;;;;;;;25.20;4.60;;;;;;;9.96;56.39;100607.59;5027451;28;99175;-70
2023/02/24 01:47:41;;;;;;;28.65;4.05;;;;;;;9.99;56.18;100603.03;5027291;27;97669;-71
2023/02/24 01:50:13;;;;;;;21.75;3.28;;;;;;;10.00;55.55;100599.50;5028634;27;97834;-71
2023/02/24 01:52:41;;;;;;;22.48;3.13;;;;;;;10.16;55.47;100598.97;5029735;27;100004;-72
2023/02/24 01:55:14;;;;;;;21.08;2.95;;;;;;;10.28;55.00;100590.63;5028960;27;98923;-70
2023/02/24 01:57:41;;;;;;;24.92;3.72;;;;;;;10.06;55.42;100594.91;5023781;27;96788;-70
2023/02/24 02:00:30;;;;;;;21.00;3.65;;;;;;;9.81;56.36;100590.50;5028764;28;97606;-70
2023/02/24 02:02:59;;;;;;;27.60;3.65;;;;;;;9.88;55.82;100599.94;5027990;28;98262;-70
2023/02/24 02:05:25;;;;;;;25.92;2.97;;;;;;;9.75;55.47;100592.50;5022162;27;98986;-70
2023/02/24 02:07:53;;;;;;;21.85;2.88;;;;;;;9.46;56.04;100593.47;5021690;27;96798;-70
2023/02/24 02:10:20;;;;;;;21.45;2.75;;;;;;;9.01;55.89;100593.19;5023343;27;97743;-71
2023/02/24 02:12:46;;;;;;;17.20;2.78;;;;;;;9.42;56.07;100587.44;5027801;28;100291;-71
2023/02/24 02:15:19;;;;;;;20.33;2.50;;;;;;;9.85;54.34;100581.56;5024886;27;99485;-71
2023/02/24 02:17:55;;;;;;;25.08;3.30;;;;;;;9.94;54.26;100586.50;5024830;27;97333;-70
2023/02/24 02:20:42;;;;;;;23.65;3.50;;;;;;;9.86;53.56;100579.78;5024914;28;98608;-69
2023/02/24 02:23:45;;;;;;;20.83;2.42;;;;;;;9.56;54.44;100589.63;5019643;27;100880;-70
2023/02/24 02:26:31;;;;;;;24.42;2.83;;;;;;;9.70;53.67;100578.59;5026130;28;98138;-70
2023/02/24 02:29:29;;;;;;;19.73;3.20;;;;;;;9.74;52.87;100580.22;5030471;28;97219;-70
2023/02/24 02:32:30;;;;;;;20.13;2.50;;;;;;;9.64;53.63;100576.19;5031458;28;96884;-70
2023/02/24 02:35:05;;;;;;;18.08;2.25;;;;;;;9.37;54.00;100575.31;5009526;27;98873;-69
2023/02/24 02:37:34;;;;;;;18.17;2.00;;;;;;;9.05;54.28;100577.25;5031284;27;98034;-70
2023/02/24 02:40:18;;;;;;;16.27;2.15;;;;;;;8.45;55.79;100592.28;5033969;27;96801;-70
2023/02/24 02:42:49;;;;;;;15.75;2.58;;;;;;;9.00;54.92;100580.91;5032334;28;96771;-70
2023/02/24 02:45:19;;;;;;;8.43;2.00;;;;;;;9.05;53.86;100571.97;5032366;27;99461;-71
2023/02/24 02:47:52;;;;;;;16.80;1.85;;;;;;;9.33;53.12;100573.69;5031582;27;97988;-69
2023/02/24 02:50:25;;;;;;;20.80;1.85;;;;;;;9.43;51.04;100573.34;5032354;28;97445;-70
2023/02/24 02:52:57;;;;;;;11.15;1.58;;;;;;;9.59;50.75;100571.03;5030743;27;96775;-71
2023/02/24 02:55:30;;;;;;;14.20;1.40;;;;;;;9.71;50.23;100572.41;5027788;27;102052;-71
2023/02/24 02:58:00;;;;;;;15.65;1.85;;;;;;;9.32;50.28;100570.19;5025593;27;99014;-71
2023/02/24 03:00:33;;;;;;;19.10;3.35;;;;;;;8.68;51.58;100574.00;5022806;28;96809;-71
2023/02/24 03:03:06;;;;;;;17.15;3.05;;;;;;;8.68;51.88;100566.09;5021723;28;97228;-70
2023/02/24 03:05:45;;;;;;;14.55;1.58;;;;;;;9.21;50.57;100574.94;5020773;28;97824;-70
2023/02/24 03:08:15;;;;;;;15.82;1.95;;;;;;;9.30;49.93;100565.88;5029852;28;99138;-70
2023/02/24 03:10:49;;;;;;;18.40;2.08;;;;;;;8.97;50.26;100563.44;5024992;28;97233;-69
2023/02/24 03:13:19;;;;;;;18.63;2.38;;;;;;;8.63;51.25;100570.66;5023324;27;96875;-70
2023/02/24 03:15:46;;;;;;;13.98;1.52;;;;;;;8.28;52.29;100566.38;5020294;27;99236;-71
2023/02/24 03:18:19;;;;;;;14.68;1.95;;;;;;;8.12;52.69;100575.66;5025729;28;97453;-71
2023/02/24 03:20:50;;;;;;;14.52;1.48;;;;;;;8.53;52.18;100563.94;5025440;28;96875;-70
2023/02/24 03:23:19;;;;;;;15.10;1.98;;;;;;;9.04;51.50;100562.34;5028626;28;96837;-71
2023/02/24 03:25:52;;;;;;;11.70;1.70;;;;;;;8.89;51.64;100557.53;5023421;27;98972;-71
2023/02/24 03:28:23;;;;;;;17.30;2.15;;;;;;;8.29;52.64;100553.19;5023495;28;99128;-70
2023/02/24 03:30:57;;;;;;;14.15;2.30;;;;;;;8.60;52.61;100549.69;5017158;27;97071;-71
2023/02/24 03:33:30;;;;;;;14.95;1.95;;;;;;;8.82;51.72;100547.25;5019451;27;98645;-70
2023/02/24 03:36:00;;;;;;;13.43;1.73;;;;;;;8.88;52.04;100540.00;5016654;28;98895;-70
2023/02/24 03:38:29;;;;;;;14.93;2.13;;;;;;;8.79;52.26;100533.25;5022294;28;98746;-70
2023/02/24 03:40:57;;;;;;;15.82;2.40;;;;;;;8.96;51.83;100530.09;5023951;28;97772;-70
2023/02/24 03:43:27;;;;;;;14.10;1.65;;;;;;;9.01;51.15;100525.53;5029424;28;97286;-70
2023/02/24 03:45:55;;;;;;;16.52;2.47;;;;;;;9.04;51.55;100514.88;5023624;27;99133;-70
2023/02/24 03:48:23;;;;;;;20.73;2.67;;;;;;;8.71;51.65;100514.19;5029299;27;101972;-71
2023/02/24 03:50:51;;;;;;;20.40;2.03;;;;;;;7.84;54.22;100528.19;5029991;27;97067;-70
2023/02/24 03:53:30;;;;;;;21.10;2.10;;;;;;;8.35;53.61;100518.81;5025678;27;97928;-71
2023/02/24 03:56:09;;;;;;;17.42;2.05;;;;;;;8.87;52.88;100511.91;5023799;28;101642;-71
2023/02/24 03:58:45;;;;;;;14.18;2.38;;;;;;;9.12;52.20;100514.66;5023826;27;98094;-71
2023/02/24 04:01:18;;;;;;;12.20;1.85;;;;;;;9.12;51.82;100515.47;5026422;28;96755;-70
2023/02/24 04:03:53;;;;;;;14.80;1.90;;;;;;;8.85;52.29;100511.13;5024903;28;97287;-71
2023/02/24 04:06:25;;;;;;;9.63;2.05;;;;;;;8.89;52.22;100507.47;5023973;28;101928;-69
2023/02/24 04:09:00;;;;;;;16.02;2.75;;;;;;;8.52;53.15;100504.28;5028976;28;97686;-70
2023/02/24 04:11:32;;;;;;;16.77;2.58;;;;;;;8.67;52.73;100499.38;5025062;28;98521;-71
2023/02/24 04:14:05;;;;;;;15.93;2.28;;;;;;;8.57;52.66;100499.72;5027026;27;97600;-71
2023/02/24 04:16:37;;;;;;;22.50;2.75;;;;;;;8.21;53.61;100502.53;5027307;28;101908;-71
2023/02/24 04:19:10;;;;;;;19.42;3.58;;;;;;;8.42;53.28;100501.06;5027853;28;98912;-71
2023/02/24 04:21:39;;;;;;;19.48;2.42;;;;;;;8.64;52.54;100496.88;5026782;28;96971;-71
2023/02/24 04:24:14;;;;;;;12.88;2.42;;;;;;;8.49;52.90;100496.47;5022185;27;98783;-71
2023/02/24 04:26:43;;;;;;;15.43;2.90;;;;;;;8.66;52.87;100494.19;5020625;28;101423;-71
2023/02/24 04:29:16;;;;;;;28.10;3.40;;;;;;;8.63;52.67;100486.38;5031076;27;99110;-70
2023/02/24 04:31:44;;;;;;;19.02;2.25;;;;;;;8.72;52.53;100480.81;5027769;27;97166;-71
2023/02/24 04:34:11;;;;;;;14.38;2.15;;;;;;;8.49;52.90;100478.91;5025666;28;97114;-70
2023/02/24 04:36:38;;;;;;;16.35;2.17;;;;;;;8.43;53.03;100473.81;5020815;27;101877;-70
2023/02/24 04:39:04;;;;;;;13.55;2.42;;;;;;;8.39;52.73;100473.06;5024549;28;97747;-71
2023/02/24 04:41:32;;;;;;;11.18;2.03;;;;;;;8.39;52.96;100473.06;5025209;28;98632;-71
2023/02/24 04:44:00;;;;;;;17.98;2.40;;;;;;;8.08;53.83;100474.84;5028206;28;97806;-71
2023/02/24 04:46:28;;;;;;;15.32;2.58;;;;;;;8.48;53.63;100473.66;5021396;28;98897;-71
2023/02/24 04:48:56;;;;;;;23.75;2.60;;;;;;;8.60;52.62;100470.69;5027569;27;102405;-71
2023/02/24 04:51:22;;;;;;;15.40;2.30;;;;;;;8.65;52.08;100461.72;5030438;28;96806;-70
2023/02/24 04:53:49;;;;;;;20.40;2.30;;;;;;;8.45;52.47;100458.00;5029060;28;97511;-71
2023/02/24 04:56:17;;;;;;;17.95;2.55;;;;;;;8.49;52.09;100451.69;5026413;28;98929;-71
2023/02/24 04:58:45;;;;;;;8.95;1.80;;;;;;;8.14;52.76;100445.72;5029208;27;98836;-71
2023/02/24 05:01:11;;;;;;;15.70;2.42;;;;;;;8.07;52.98;100460.00;5028918;28;99861;-71
2023/02/24 05:03:41;;;;;;;15.40;2.00;;;;;;;8.05;53.28;100448.63;5029405;28;98922;-71
2023/02/24 05:06:12;;;;;;;17.00;2.35;;;;;;;8.30;52.53;100441.75;5026728;27;97855;-71
2023/02/24 05:08:39;;;;;;;8.43;1.83;;;;;;;8.18;52.36;100439.47;5027923;28;99303;-71
2023/02/24 05:11:07;;;;;;;13.13;2.05;;;;;;;8.18;52.60;100435.97;5028385;28;98033;-73
2023/02/24 05:13:36;;;;;;;16.70;1.90;;;;;;;8.30;52.54;100438.22;5027560;28;97358;-72
2023/02/24 05:16:07;;;;;;;16.70;1.75;;;;;;;8.52;51.64;100427.91;5029512;28;100438;-71
2023/02/24 05:18:35;;;;;;;13.07;1.77;;;;;;;8.37;51.95;100437.16;5031573;27;99942;-71
2023/02/24 05:23:50;;;;;;;20.52;1.83;;;;;;;8.79;50.74;100419.13;5028009;28;97147;-72
2023/02/24 05:26:19;;;;;;;13.85;2.40;;;;;;;8.70;51.15;100416.78;5025668;28;99290;-71
2023/02/24 05:28:47;;;;;;;15.05;2.00;;;;;;;8.90;51.13;100419.63;5031640;28;98948;-71
2023/02/24 05:31:18;;;;;;;7.13;1.23;;;;;;;8.72;51.15;100412.31;5030220;28;97076;-71
2023/02/24 05:33:48;;;;;;;16.35;1.80;;;;;;;8.38;51.77;100408.16;5029548;28;96943;-71
2023/02/24 05:36:17;;;;;;;11.75;2.05;;;;;;;8.16;53.09;100401.78;5028218;28;99341;-70
2023/02/24 05:38:44;;;;;;;8.55;1.17;;;;;;;8.30;52.67;100399.63;5026354;27;101776;-71
2023/02/24 05:41:15;;;;;;;17.50;2.53;;;;;;;8.55;52.15;100404.97;5025548;28;97833;-72
2023/02/24 05:43:46;;;;;;;7.60;1.10;;;;;;;8.39;52.82;100415.16;5015951;28;97949;-71
2023/02/24 05:46:13;;;;;;;11.25;1.60;;;;;;;8.69;51.52;100402.75;5023538;27;98922;-71
2023/02/24 05:48:42;;;;;;;13.50;1.50;;;;;;;8.49;51.91;100405.16;5026848;28;98817;-71
2023/02/24 05:51:11;;;;;;;15.18;1.92;;;;;;;8.56;51.87;100398.78;5029118;27;97236;-71
2023/02/24 05:53:40;;;;;;;12.40;1.80;;;;;;;8.36;52.23;100399.44;5023190;27;97464;-71
2023/02/24 05:56:07;;;;;;;9.07;1.27;;;;;;;8.24;52.49;100394.53;5026133;27;99028;-71
2023/02/24 05:58:33;;;;;;;6.55;1.27;;;;;;;8.41;51.58;100380.84;5025082;27;98810;-70
2023/02/24 06:01:04;;;;;;;10.15;1.30;;;;;;;8.28;52.06;100388.25;5030006;27;96761;-70
2023/02/24 06:03:34;;;;;;;10.07;1.85;;;;;;;8.44;51.75;100391.28;5024921;28;97685;-71
2023/02/24 06:06:07;;;;;;;11.73;1.25;;;;;;;8.57;51.41;100386.50;5024041;28;99205;-71
2023/02/24 06:08:41;;;;;;;7.32;1.50;;;;;;;8.05;52.94;100392.50;5025798;27;98794;-69
2023/02/24 06:11:09;;;;;;;15.55;3.17;;;;;;;8.25;52.60;100379.59;5020299;28;96905;-71
2023/02/24 06:13:36;;;;;;;10.43;1.65;;;;;;;8.29;52.80;100384.72;5024918;28;97135;-71
2023/02/24 06:16:02;;;;;;;11.88;1.20;;;;;;;8.18;52.73;100383.34;5022132;28;100950;-70
2023/02/24 06:18:29;;;;;;;10.10;1.42;;;;;;;8.38;52.55;100366.03;5026198;28;99494;-70
2023/02/24 06:20:55;;;;;;;8.00;1.30;;;;;;;8.26;52.69;100369.03;5027595;27;96822;-71
2023/02/24 06:23:25;;;;;;;14.68;1.60;;;;;;;8.23;52.94;100381.41;5027613;27;97965;-70
2023/02/24 06:25:52;;;;;;;9.18;1.30;;;;;;;8.42;52.66;100369.41;5029879;27;99129;-70
2023/02/24 06:28:19;;;;;;;10.27;1.48;;;;;;;8.61;52.45;100367.03;5026480;27;98907;-71
2023/02/24 06:30:45;;;;;;;10.95;1.55;;;;;;;8.26;53.11;100371.66;5025206;27;96728;-70
2023/02/24 06:33:12;;;;;;;16.38;1.90;;;;;;;8.17;53.70;100365.81;5019264;27;98450;-71
2023/02/24 06:35:39;;;;;;;14.30;1.85;;;;;;;8.47;52.77;100350.84;5022051;27;99368;-70
2023/02/24 06:38:05;;;;;;;8.38;1.20;;;;;;;8.28;53.03;100359.28;5023980;27;99820;-71
2023/02/24 06:40:33;;;;;;;7.82;1.02;;;;;;;8.36;52.62;100351.19;5020134;27;97955;-71
2023/02/24 06:42:59;;;;;;;13.38;1.15;;;;;;;8.33;52.46;100343.41;5023486;27;97399;-70
2023/02/24 06:45:25;;;;;;;14.40;1.42;;;;;;;8.31;52.46;100338.19;5023371;27;99086;-71
2023/02/24 06:47:52;;;;;;;9.50;1.33;;;;;;;8.58;51.96;100338.19;5027737;28;99005;-71
2023/02/24 06:50:20;;;;;;;9.40;1.15;;;;;;;8.77;51.33;100340.13;5028920;27;98757;-71
2023/02/24 06:52:47;;;;;;;10.82;1.63;;;;;;;8.83;50.95;100336.41;5029620;28;97123;-71
2023/02/24 06:55:24;;;;;;;5.90;1.15;;;;;;;8.59;50.98;100339.91;5023920;28;98879;-70
2023/02/24 06:57:57;;;;;;;9.88;1.67;;;;;;;8.28;51.71;100342.63;5021091;27;98423;-72
2023/02/24 07:00:36;;;;;;;7.05;1.35;;;;;;;8.32;51.71;100334.63;5027223;28;99297;-71
2023/02/24 07:03:13;;;;;;;11.23;1.38;;;;;;;8.06;51.79;100337.22;5024410;28;96812;-71
2023/02/24 07:05:41;;;;;;;5.72;1.25;;;;;;;8.16;51.32;100328.09;5022594;28;99025;-71
2023/02/24 07:08:08;;;;;;;10.10;1.52;;;;;;;8.15;51.07;100336.03;5026455;28;99465;-71
2023/02/24 07:10:34;;;;;;;13.10;1.40;;;;;;;8.52;50.65;100325.22;5023759;27;96772;-71
2023/02/24 07:13:02;;;;;;;10.27;1.40;;;;;;;8.44;49.70;100319.34;5021945;27;98528;-71
2023/02/24 07:15:30;;;;;;;8.45;1.40;;;;;;;8.43;50.38;100325.50;5022195;27;99394;-71
2023/02/24 07:17:57;;;;;;;9.18;1.83;;;;;;;8.53;50.07;100316.41;5020752;28;101150;-70
2023/02/24 07:20:25;;;;;;;6.63;1.30;;;;;;;8.18;50.50;100317.53;5019848;27;97406;-70
2023/02/24 07:22:51;;;;;;;9.88;1.35;;;;;;;8.43;49.88;100321.09;5016344;27;98767;-71
2023/02/24 07:25:31;;;;;;;11.15;1.40;;;;;;;8.26;49.27;100319.00;5023745;28;99428;-70
2023/02/24 07:27:59;;;;;;;12.40;1.55;;;;;;;8.27;49.41;100318.06;5020009;27;99051;-70
2023/02/24 07:30:28;;;;;;;5.95;1.10;;;;;;;8.16;49.24;100307.06;5023708;28;98040;-70
2023/02/24 07:32:55;;;;;;;5.15;0.98;;;;;;;8.46;48.71;100299.97;5021909;28;99313;-72
2023/02/24 07:35:22;;;;;;;14.10;1.70;;;;;;;8.38;48.32;100296.72;5029003;27;99361;-70
2023/02/24 07:37:49;;;;;;;7.50;1.00;;;;;;;8.32;47.76;100302.19;5028014;27;99079;-71
2023/02/24 07:40:16;;;;;;;11.93;1.73;;;;;;;8.11;47.10;100295.81;5023183;27;96853;-71
2023/02/24 07:42:46;;;;;;;10.00;1.10;;;;;;;7.86;47.32;100284.38;5023685;28;98957;-71
2023/02/24 07:45:13;;;;;;;8.23;1.50;;;;;;;7.98;47.32;100279.56;5026245;27;97664;-71
2023/02/24 07:47:41;;;;;;;15.18;1.60;;;;;;;8.11;47.10;100279.16;5027221;27;100155;-71
2023/02/24 07:50:13;;;;;;;11.80;2.28;;;;;;;8.39;46.77;100272.13;5030185;28;97175;-74
2023/02/24 07:52:43;;;;;;;17.15;1.70;;;;;;;8.62;45.60;100268.66;5020341;27;96841;-73
2023/02/24 07:55:10;;;;;;;10.43;1.42;;;;;;;8.13;45.57;100262.44;5024993;27;100006;-71
2023/02/24 07:57:38;;;;;;;11.13;1.60;;;;;;;7.87;46.81;100247.50;5016822;27;98783;-71
2023/02/24 08:00:17;;;;;;;7.53;1.35;;;;;;;8.08;46.53;100255.56;5020014;27;97167;-71
2023/02/24 08:02:47;;;;;;;12.70;1.75;;;;;;;8.00;46.89;100243.56;5025929;27;96698;-72
2023/02/24 08:05:14;;;;;;;8.85;1.40;;;;;;;8.31;46.53;100237.28;5021160;28;97995;-71
2023/02/24 08:07:41;;;;;;;7.65;1.77;;;;;;;8.48;45.94;100228.78;5028110;28;99537;-71
2023/02/24 08:10:23;;;;;;;5.78;1.42;;;;;;;8.65;45.56;100232.56;5025705;28;96888;-73
2023/02/24 08:12:53;;;;;;;11.50;1.38;;;;;;;8.56;46.05;100216.22;5021007;27;97660;-72
2023/02/24 08:15:23;;;;;;;7.22;1.35;;;;;;;8.56;46.14;100221.47;5020015;28;97692;-71
2023/02/24 08:17:53;;;;;;;11.15;1.52;;;;;;;8.74;45.53;100205.88;5018487;27;98800;-71
2023/02/24 08:20:25;;;;;;;7.55;1.17;;;;;;;9.08;45.14;100218.66;5021403;27;97580;-74
2023/02/24 08:22:54;;;;;;;6.20;1.40;;;;;;;8.85;45.41;100208.13;5022911;28;97021;-72
2023/02/24 08:25:22;;;;;;;8.57;1.60;;;;;;;8.77;45.97;100207.56;5022654;28;99488;-72
2023/02/24 08:27:55;;;;;;;11.23;1.48;;;;;;;8.42;46.78;100198.28;5026272;28;98808;-72
2023/02/24 08:30:23;;;;;;;9.55;1.67;;;;;;;8.83;46.43;100196.78;5023039;27;98034;-72
2023/02/24 08:32:56;;;;;;;14.25;2.10;;;;;;;8.83;45.76;100190.66;5024163;27;96895;-71
2023/02/24 08:35:30;;;;;;;8.15;1.20;;;;;;;8.46;46.86;100183.25;5025738;27;98812;-71
2023/02/24 08:38:03;;;;;;;7.75;1.77;;;;;;;8.64;47.13;100172.91;5030182;27;99034;-71
2023/02/24 08:40:49;;;;;;;11.02;2.08;;;;;;;8.70;46.49;100172.66;5028919;28;97318;-71
2023/02/24 08:43:19;;;;;;;7.23;1.23;;;;;;;8.65;46.66;100179.03;5025231;28;97166;-72
2023/02/24 08:45:49;;;;;;;5.10;1.25;;;;;;;8.74;46.73;100174.25;5022645;27;98850;-71
2023/02/24 08:48:25;;;;;;;6.70;1.27;;;;;;;8.74;46.81;100170.78;5029219;28;101573;-71
2023/02/24 08:50:56;;;;;;;7.65;1.70;;;;;;;9.08;46.16;100167.72;5027358;27;97733;-70
2023/02/24 08:53:28;;;;;;;12.85;1.75;;;;;;;9.17;45.49;100160.34;5022639;27;97777;-72
2023/02/24 08:55:54;;;;;;;9.32;1.80;;;;;;;9.33;45.03;100162.34;5023464;28;99264;-70
2023/02/24 08:58:25;;;;;;;11.43;1.90;;;;;;;9.06;45.29;100149.31;5030594;28;97463;-73
2023/02/24 09:00:53;;;;;;;8.65;1.83;;;;;;;8.60;46.53;100147.56;5025285;27;96689;-70
2023/02/24 09:03:32;;;;;;;10.93;1.90;;;;;;;8.95;45.80;100138.34;5013977;27;97608;-71
2023/02/24 09:06:03;;;;;;;7.88;1.73;;;;;;;8.77;46.40;100141.69;5028278;27;98927;-72
2023/02/24 09:08:32;;;;;;;10.98;1.75;;;;;;;8.92;46.41;100130.59;5023856;28;99348;-72
2023/02/24 09:11:00;;;;;;;6.50;1.60;;;;;;;9.16;46.27;100132.25;5025204;27;98780;-71
2023/02/24 09:13:31;;;;;;;7.88;1.48;;;;;;;8.85;46.50;100123.81;5022178;27;98566;-71
2023/02/24 09:15:59;;;;;;;10.38;1.98;;;;;;;8.72;47.09;100122.56;5026021;27;101257;-72
2023/02/24 09:18:29;;;;;;;8.80;1.77;;;;;;;8.89;46.55;100120.16;5024505;27;99258;-69
2023/02/24 09:20:56;;;;;;;4.88;1.65;;;;;;;8.65;47.20;100121.09;5023918;27;97249;-72
2023/02/24 09:23:28;;;;;;;9.02;1.88;;;;;;;8.83;47.05;100117.75;5023217;27;96899;-72
2023/02/24 09:25:55;;;;;;;8.32;1.70;;;;;;;8.66;47.12;100112.28;5018684;27;98820;-71
2023/02/24 09:28:23;;;;;;;14.63;3.28;;;;;;;8.87;46.75;100108.78;5026242;27;98839;-71
2023/02/24 09:30:55;;;;;;;12.70;2.30;;;;;;;8.51;47.11;100099.66;5023768;27;97838;-70
2023/02/24 09:33:24;;;;;;;8.77;2.00;;;;;;;8.92;46.49;100095.47;5017842;27;96855;-72
2023/02/24 09:36:01;;;;;;;11.25;1.45;;;;;;;8.82;46.28;100094.94;5019028;27;98900;-72
2023/02/24 09:39:08;;;;;;;6.00;1.30;;;;;;;8.65;46.86;100094.75;5023205;27;100949;-70
2023/02/24 09:41:31;;;;;;;6.47;2.17;;;;;;;8.81;46.76;100095.88;5024680;27;96800;-70
2023/02/24 09:44:02;;;;;;;14.77;3.28;;;;;;;9.22;46.35;100086.34;5015221;27;97595;-72
2023/02/24 09:46:34;;;;;;;9.90;2.03;;;;;;;9.39;46.01;100080.34;5017147;27;99545;-73
2023/02/24 09:49:07;;;;;;;11.43;2.17;;;;;;;9.28;45.50;100077.31;5020194;27;99326;-73
2023/02/24 09:51:41;;;;;;;6.45;1.27;;;;;;;9.44;45.47;100071.38;5024940;27;98597;-73
2023/02/24 09:54:14;;;;;;;8.48;1.58;;;;;;;9.44;44.96;100063.47;5022959;27;97441;-74
2023/02/24 09:56:45;;;;;;;10.27;2.17;;;;;;;9.39;45.54;100062.75;5022250;27;97968;-72
2023/02/24 09:59:24;;;;;;;6.68;1.35;;;;;;;9.81;44.11;100070.66;5023440;27;101694;-71
2023/02/24 10:02:00;;;;;;;10.90;1.40;;;;;;;9.44;44.62;100054.69;5021196;27;98492;-71
2023/02/24 10:04:39;;;;;;;8.88;1.42;;;;;;;9.86;43.83;100052.84;5019373;27;97232;-71
2023/02/24 10:07:13;;;;;;;8.85;1.60;;;;;;;10.01;43.49;100056.59;5029504;27;97968;-72
2023/02/24 10:09:44;;;;;;;9.75;1.30;;;;;;;9.81;43.63;100043.41;5024716;27;97962;-71
2023/02/24 10:12:18;;;;;;;10.57;0.95;;;;;;;9.61;44.04;100052.19;5023488;27;98631;-71
2023/02/24 10:14:51;;;;;;;7.72;1.15;;;;;;;9.50;44.37;100043.88;5022694;27;97612;-72
2023/02/24 10:17:23;;;;;;;7.78;1.10;;;;;;;9.77;43.49;100039.22;5027375;28;101333;-72
2023/02/24 10:19:58;;;;;;;8.95;1.40;;;;;;;9.73;43.80;100030.56;5022853;27;99635;-72
2023/02/24 10:22:38;;;;;;;10.15;2.95;;;;;;;10.02;42.85;100021.38;5020253;27;96825;-73
2023/02/24 10:25:18;;;;;;;8.98;0.90;;;;;;;10.30;42.78;100010.47;5025119;27;96885;-73
2023/02/24 10:27:56;;;;;;;6.63;1.73;;;;;;;9.99;42.99;100019.72;5026346;27;98901;-72
2023/02/24 10:30:39;;;;;;;7.75;0.90;;;;;;;10.16;42.81;100021.63;5019560;27;100720;-72
2023/02/24 10:33:19;;;;;;;10.65;1.30;;;;;;;9.96;43.09;100008.44;5025042;27;97203;-72
2023/02/24 10:35:46;;;;;;;6.78;0.98;;;;;;;9.90;43.45;100009.59;5026192;27;96949;-73
2023/02/24 10:38:14;;;;;;;6.70;1.58;;;;;;;10.21;42.78;100000.31;5023603;27;100852;-73
2023/02/24 10:40:45;;;;;;;9.50;1.92;;;;;;;9.90;43.10;100001.66;5023364;27;100705;-71
2023/02/24 10:43:18;;;;;;;8.50;1.30;;;;;;;9.76;43.25;99997.91;5016101;27;98654;-71
2023/02/24 10:45:46;;;;;;;6.35;1.55;;;;;;;9.84;43.35;99982.59;5016126;27;97099;-72
2023/02/24 10:48:23;;;;;;;7.97;1.00;;;;;;;9.53;44.39;99985.72;5023750;27;97856;-71
2023/02/24 10:50:54;;;;;;;8.85;1.50;;;;;;;9.57;44.81;99988.16;5019279;28;99291;-73
2023/02/24 10:53:33;;;;;;;6.80;1.08;;;;;;;9.55;45.03;99983.88;5024335;27;97154;-73
2023/02/24 10:56:25;;;;;;;4.43;1.83;;;;;;;9.78;45.51;99985.53;5024947;27;96801;-71
2023/02/24 10:59:19;;;;;;;5.55;1.45;;;;;;;9.91;45.61;99982.25;5026096;27;98059;-71
2023/02/24 11:01:53;;;;;;;4.40;1.10;;;;;;;9.51;46.89;99971.75;5022238;27;97445;-71
2023/02/24 11:04:32;;;;;;;7.43;1.38;;;;;;;9.05;49.62;99975.47;5022969;27;96734;-73
2023/02/24 11:07:08;;;;;;;4.50;0.98;;;;;;;9.15;50.79;99972.38;5023034;27;96898;-73
2023/02/24 11:09:42;;;;;;;6.10;1.00;;;;;;;8.92;51.87;99969.84;5026770;27;101897;-73
2023/02/24 11:17:50;;;;;;;8.50;1.25;;;;;;;8.59;56.33;99950.16;5014820;27;98717;-73
2023/02/24 11:20:26;;;;;;;5.60;1.10;;;;;;;8.66;55.62;99955.06;5009415;27;98842;-73
2023/02/24 11:22:54;;;;;;;6.53;1.40;;;;;;;8.06;57.70;99949.56;5010412;27;99278;-72
2023/02/24 11:25:25;;;;;;;5.80;1.08;;;;;;;7.93;58.76;99946.53;5021733;27;96765;-72
2023/02/24 11:27:54;;;;;;;4.80;1.10;;;;;;;7.71;59.85;99935.94;5024873;27;96985;-72
2023/02/24 11:30:31;;;;;;;11.95;1.77;;;;;;;7.52;61.14;99929.63;5018081;27;99025;-72
2023/02/24 11:33:24;;;;;;;9.00;1.50;;;;;;;7.78;61.18;99931.31;5020993;27;99479;-73
2023/02/24 11:36:04;;;;;;;6.95;1.60;;;;;;;7.72;61.62;99927.13;5022917;27;98095;-72
2023/02/24 11:38:39;;;;;;;5.90;1.35;;;;;;;8.12;60.84;99918.59;5021398;27;96730;-72
2023/02/24 11:41:20;;;;;;;9.02;1.30;;;;;;;8.12;60.82;99913.34;5015992;27;98833;-72
2023/02/24 11:43:56;;;;;;;5.50;1.48;;;;;;;8.31;60.43;99901.22;5014426;27;98762;-73
2023/02/24 11:46:33;;;;;;;8.25;1.58;;;;;;;8.42;59.80;99892.88;5020881;27;97113;-72
2023/02/24 11:49:05;;;;;;;5.47;1.20;;;;;;;8.11;59.87;99889.72;5018844;27;99171;-72
2023/02/24 11:51:39;;;;;;;9.40;1.60;;;;;;;8.38;59.80;99886.03;5021647;27;99055;-74
2023/02/24 11:54:09;;;;;;;7.97;1.23;;;;;;;8.57;59.22;99887.00;5022556;28;98932;-72